createdAt,value
2022-10-05T00:00:53.564Z,13.41
2022-10-05T00:01:53.632Z,13.38
2022-10-05T00:02:53.537Z,13.35
2022-10-05T00:03:53.616Z,13.33
2022-10-05T00:05:53.564Z,13.32
2022-10-05T00:06:53.585Z,13.33
2022-10-05T00:09:53.558Z,13.32
2022-10-05T00:10:53.554Z,13.31
2022-10-05T00:11:53.584Z,13.29
2022-10-05T00:12:53.583Z,13.27
2022-10-05T00:14:53.654Z,13.29
2022-10-05T00:15:53.580Z,13.30
2022-10-05T00:16:53.697Z,13.32
2022-10-05T00:17:53.585Z,13.28
2022-10-05T00:18:58.365Z,13.22
2022-10-05T00:20:53.602Z,13.21
2022-10-05T00:21:53.583Z,13.23
2022-10-05T00:23:53.619Z,13.22
2022-10-05T00:24:53.608Z,13.21
2022-10-05T00:25:53.610Z,13.20
2022-10-05T00:26:57.826Z,13.18
2022-10-05T00:28:53.625Z,13.16
2022-10-05T00:29:53.630Z,13.17
2022-10-05T00:30:53.621Z,13.19
2022-10-05T00:32:58.690Z,13.16
2022-10-05T00:33:53.617Z,13.15
2022-10-05T00:34:53.636Z,13.13
2022-10-05T00:35:53.628Z,13.12
2022-10-05T00:36:53.637Z,13.10
2022-10-05T00:39:53.672Z,13.12
2022-10-05T00:40:53.640Z,13.13
2022-10-05T00:44:53.653Z,13.14
2022-10-05T00:45:53.747Z,13.15
2022-10-05T00:47:53.657Z,13.14
2022-10-05T00:48:53.656Z,13.12
2022-10-05T00:49:53.677Z,13.08
2022-10-05T00:54:53.698Z,13.07
2022-10-05T00:55:58.590Z,13.04
2022-10-05T00:56:53.662Z,13.01
2022-10-05T00:57:53.706Z,12.98
2022-10-05T00:58:53.679Z,12.97
2022-10-05T00:59:53.672Z,12.95
2022-10-05T01:00:53.743Z,12.93
2022-10-05T01:01:53.772Z,12.91
2022-10-05T01:02:53.762Z,12.89
2022-10-05T01:03:53.708Z,12.86
2022-10-05T01:04:53.692Z,12.85
2022-10-05T01:05:53.702Z,12.82
2022-10-05T01:06:53.699Z,12.81
2022-10-05T01:07:53.709Z,12.79
2022-10-05T01:08:53.712Z,12.78
2022-10-05T01:09:53.728Z,12.77
2022-10-05T01:12:53.708Z,12.78
2022-10-05T01:13:53.755Z,12.77
2022-10-05T01:14:53.722Z,12.74
2022-10-05T01:15:53.746Z,12.72
2022-10-05T01:16:53.783Z,12.70
2022-10-05T01:17:53.734Z,12.69
2022-10-05T01:19:53.738Z,12.70
2022-10-05T01:21:53.748Z,12.71
2022-10-05T01:22:53.753Z,12.72
2022-10-05T01:23:53.762Z,12.71
2022-10-05T01:25:53.769Z,12.72
2022-10-05T01:26:53.757Z,12.73
2022-10-05T01:28:53.769Z,12.70
2022-10-05T01:29:53.765Z,12.66
2022-10-05T01:30:53.756Z,12.63
2022-10-05T01:31:53.871Z,12.62
2022-10-05T01:34:53.782Z,12.61
2022-10-05T01:35:53.774Z,12.62
2022-10-05T01:36:53.785Z,12.64
2022-10-05T01:38:53.822Z,12.63
2022-10-05T01:39:53.805Z,12.62
2022-10-05T01:40:53.791Z,12.63
2022-10-05T01:41:53.809Z,12.64
2022-10-05T01:42:53.792Z,12.65
2022-10-05T01:43:53.812Z,12.67
2022-10-05T01:45:53.899Z,12.66
2022-10-05T01:46:53.800Z,12.64
2022-10-05T01:47:53.788Z,12.61
2022-10-05T01:48:53.795Z,12.60
2022-10-05T01:49:53.819Z,12.59
2022-10-05T01:50:53.830Z,12.56
2022-10-05T01:52:53.841Z,12.55
2022-10-05T01:53:53.804Z,12.54
2022-10-05T01:54:53.820Z,12.55
2022-10-05T01:55:53.839Z,12.57
2022-10-05T01:56:53.834Z,12.60
2022-10-05T01:57:53.823Z,12.63
2022-10-05T01:58:53.832Z,12.67
2022-10-05T01:59:53.857Z,12.66
2022-10-05T02:00:53.899Z,12.65
2022-10-05T02:01:53.873Z,12.64
2022-10-05T02:02:53.852Z,12.62
2022-10-05T02:05:53.847Z,12.64
2022-10-05T02:06:53.975Z,12.65
2022-10-05T02:07:53.861Z,12.66
2022-10-05T02:10:53.870Z,12.67
2022-10-05T02:11:53.873Z,12.68
2022-10-05T02:12:53.887Z,12.69
2022-10-05T02:13:53.879Z,12.71
2022-10-05T02:15:53.950Z,12.69
2022-10-05T02:17:53.927Z,12.66
2022-10-05T02:18:53.890Z,12.65
2022-10-05T02:19:53.892Z,12.64
2022-10-05T02:20:53.900Z,12.62
2022-10-05T02:21:53.895Z,12.60
2022-10-05T02:22:53.894Z,12.59
2022-10-05T02:23:53.912Z,12.57
2022-10-05T02:24:53.918Z,12.55
2022-10-05T02:25:53.909Z,12.52
2022-10-05T02:26:53.897Z,12.51
2022-10-05T02:27:53.935Z,12.50
2022-10-05T02:29:53.921Z,12.48
2022-10-05T02:30:53.910Z,12.47
2022-10-05T02:31:54.003Z,12.46
2022-10-05T02:32:53.901Z,12.44
2022-10-05T02:33:53.908Z,12.43
2022-10-05T02:34:53.925Z,12.42
2022-10-05T02:35:53.933Z,12.39
2022-10-05T02:36:53.939Z,12.37
2022-10-05T02:37:53.932Z,12.35
2022-10-05T02:38:53.930Z,12.33
2022-10-05T02:39:53.943Z,12.31
2022-10-05T02:40:53.952Z,12.30
2022-10-05T02:43:54.245Z,12.31
2022-10-05T02:44:53.942Z,12.30
2022-10-05T02:45:54.039Z,12.29
2022-10-05T02:46:57.175Z,12.27
2022-10-05T02:47:53.942Z,12.26
2022-10-05T02:48:53.961Z,12.24
2022-10-05T02:49:53.953Z,12.23
2022-10-05T02:50:53.965Z,12.22
2022-10-05T02:51:53.955Z,12.21
2022-10-05T02:52:53.968Z,12.19
2022-10-05T02:53:53.977Z,12.18
2022-10-05T02:54:53.961Z,12.16
2022-10-05T02:55:53.979Z,12.14
2022-10-05T02:57:53.970Z,12.13
2022-10-05T02:58:53.991Z,12.12
2022-10-05T02:59:53.982Z,12.11
2022-10-05T03:00:54.037Z,12.08
2022-10-05T03:01:54.014Z,12.06
2022-10-05T03:02:53.992Z,12.04
2022-10-05T03:03:53.997Z,12.03
2022-10-05T03:05:53.996Z,12.04
2022-10-05T03:06:53.997Z,12.02
2022-10-05T03:07:54.016Z,12.01
2022-10-05T03:10:54.020Z,12.00
2022-10-05T03:12:54.059Z,11.99
2022-10-05T03:13:54.013Z,11.98
2022-10-05T03:14:54.016Z,11.96
2022-10-05T03:15:54.134Z,11.95
2022-10-05T03:16:54.046Z,11.92
2022-10-05T03:17:54.027Z,11.89
2022-10-05T03:18:54.043Z,11.88
2022-10-05T03:19:54.037Z,11.86
2022-10-05T03:20:54.487Z,11.85
2022-10-05T03:21:54.036Z,11.84
2022-10-05T03:22:54.090Z,11.83
2022-10-05T03:23:54.046Z,11.81
2022-10-05T03:27:54.158Z,11.79
2022-10-05T03:28:54.082Z,11.78
2022-10-05T03:29:54.071Z,11.76
2022-10-05T03:30:54.141Z,11.74
2022-10-05T03:31:54.071Z,11.73
2022-10-05T03:33:54.077Z,11.71
2022-10-05T03:34:54.067Z,11.69
2022-10-05T03:35:54.087Z,11.68
2022-10-05T03:38:54.073Z,11.70
2022-10-05T03:40:54.102Z,11.69
2022-10-05T03:41:54.088Z,11.67
2022-10-05T03:47:57.715Z,11.65
2022-10-05T03:48:54.124Z,11.63
2022-10-05T03:51:54.131Z,11.62
2022-10-05T03:52:54.102Z,11.60
2022-10-05T03:53:54.110Z,11.61
2022-10-05T03:55:54.136Z,11.63
2022-10-05T04:01:54.217Z,11.61
2022-10-05T04:02:54.244Z,11.60
2022-10-05T04:06:54.153Z,11.59
2022-10-05T04:08:54.155Z,11.58
2022-10-05T04:09:54.166Z,11.59
2022-10-05T04:14:54.185Z,11.58
2022-10-05T04:17:54.184Z,11.57
2022-10-05T04:18:54.197Z,11.56
2022-10-05T04:19:54.189Z,11.53
2022-10-05T04:20:54.200Z,11.54
2022-10-05T04:21:54.172Z,11.56
2022-10-05T04:22:54.196Z,11.57
2022-10-05T04:23:54.170Z,11.56
2022-10-05T04:24:54.200Z,11.55
2022-10-05T04:26:54.202Z,11.56
2022-10-05T04:32:54.230Z,11.54
2022-10-05T04:34:54.944Z,11.53
2022-10-05T04:36:54.205Z,11.52
2022-10-05T04:39:54.215Z,11.54
2022-10-05T04:40:54.222Z,11.58
2022-10-05T04:41:54.231Z,11.61
2022-10-05T04:42:54.252Z,11.64
2022-10-05T04:43:54.225Z,11.66
2022-10-05T04:44:58.982Z,11.69
2022-10-05T04:45:54.237Z,11.72
2022-10-05T04:46:54.311Z,11.75
2022-10-05T04:47:54.275Z,11.77
2022-10-05T04:48:54.242Z,11.81
2022-10-05T04:49:54.238Z,11.85
2022-10-05T04:50:54.254Z,11.87
2022-10-05T04:51:54.254Z,11.86
2022-10-05T04:54:54.272Z,11.88
2022-10-05T04:55:54.290Z,11.90
2022-10-05T04:56:54.277Z,11.91
2022-10-05T04:58:54.298Z,11.90
2022-10-05T04:59:54.286Z,11.85
2022-10-05T05:00:54.326Z,11.83
2022-10-05T05:01:54.288Z,11.81
2022-10-05T05:02:54.286Z,11.79
2022-10-05T05:03:54.346Z,11.76
2022-10-05T05:04:54.289Z,11.72
2022-10-05T05:06:15.877Z,11.71
2022-10-05T05:06:54.310Z,11.69
2022-10-05T05:07:54.302Z,11.65
2022-10-05T05:08:54.301Z,11.61
2022-10-05T05:09:54.295Z,11.58
2022-10-05T05:10:54.292Z,11.55
2022-10-05T05:11:55.180Z,11.53
2022-10-05T05:12:54.295Z,11.51
2022-10-05T05:13:54.325Z,11.49
2022-10-05T05:14:54.302Z,11.48
2022-10-05T05:15:54.338Z,11.46
2022-10-05T05:16:54.305Z,11.43
2022-10-05T05:17:54.328Z,11.41
2022-10-05T05:18:54.318Z,11.40
2022-10-05T05:19:54.330Z,11.39
2022-10-05T05:20:54.324Z,11.38
2022-10-05T05:21:54.337Z,11.37
2022-10-05T05:22:54.358Z,11.34
2022-10-05T05:23:54.323Z,11.33
2022-10-05T05:24:54.337Z,11.32
2022-10-05T05:25:54.329Z,11.29
2022-10-05T05:26:54.333Z,11.30
2022-10-05T05:30:54.418Z,11.29
2022-10-05T05:31:54.357Z,11.28
2022-10-05T05:32:54.345Z,11.27
2022-10-05T05:33:54.357Z,11.26
2022-10-05T05:34:54.357Z,11.25
2022-10-05T05:40:54.397Z,11.23
2022-10-05T05:41:54.379Z,11.22
2022-10-05T05:42:54.377Z,11.19
2022-10-05T05:43:54.376Z,11.18
2022-10-05T05:44:54.395Z,11.17
2022-10-05T05:47:03.391Z,11.16
2022-10-05T05:47:54.409Z,11.15
2022-10-05T05:48:55.432Z,11.14
2022-10-05T05:49:54.405Z,11.15
2022-10-05T05:51:54.414Z,11.16
2022-10-05T05:53:54.414Z,11.18
2022-10-05T05:54:54.412Z,11.20
2022-10-05T05:55:54.401Z,11.23
2022-10-05T05:56:54.429Z,11.27
2022-10-05T08:28:54.906Z,38.49
2022-10-05T08:29:50.641Z,38.66
2022-10-05T08:30:50.670Z,38.82
2022-10-05T08:31:50.998Z,38.94
2022-10-05T08:32:50.639Z,38.98
2022-10-05T08:33:50.666Z,38.99
2022-10-05T08:34:50.664Z,39.05
2022-10-05T08:35:50.647Z,39.18
2022-10-05T08:36:53.892Z,39.27
2022-10-05T08:37:50.660Z,39.39
2022-10-05T08:38:50.666Z,39.44
2022-10-05T08:40:50.677Z,39.45
2022-10-05T08:43:50.683Z,39.62
2022-10-05T08:44:50.702Z,39.72
2022-10-05T08:45:50.726Z,39.78
2022-10-05T08:46:50.669Z,39.89
2022-10-05T08:47:50.692Z,39.99
2022-10-05T08:48:50.685Z,39.93
2022-10-05T08:49:50.806Z,39.99
2022-10-05T08:50:50.678Z,40.11
2022-10-05T08:51:51.114Z,40.26
2022-10-05T08:53:50.705Z,40.21
2022-10-05T08:54:50.688Z,40.28
2022-10-05T08:55:50.897Z,40.26
2022-10-05T08:56:50.725Z,40.23
2022-10-05T08:57:51.190Z,40.20
2022-10-05T08:58:50.726Z,40.26
2022-10-05T08:59:50.696Z,40.29
2022-10-05T09:00:54.340Z,40.41
2022-10-05T09:01:51.044Z,40.50
2022-10-05T09:02:50.792Z,40.58
2022-10-05T09:03:50.735Z,40.51
2022-10-05T09:04:50.738Z,40.54
2022-10-05T09:05:50.881Z,40.63
2022-10-05T09:06:50.900Z,40.55
2022-10-05T09:07:50.859Z,40.50
2022-10-05T09:08:50.889Z,40.59
2022-10-05T09:09:50.863Z,40.71
2022-10-05T09:10:50.877Z,40.88
2022-10-05T09:11:51.001Z,41.00
2022-10-05T09:12:50.940Z,41.15
2022-10-05T09:13:50.948Z,41.33
2022-10-05T09:15:01.489Z,41.49
2022-10-05T09:15:50.993Z,41.60
2022-10-05T09:16:50.894Z,41.63
2022-10-05T09:18:50.893Z,41.56
2022-10-05T09:19:50.943Z,41.37
2022-10-05T09:20:50.982Z,41.21
2022-10-05T09:21:50.946Z,41.07
2022-10-05T09:22:50.986Z,40.97
2022-10-05T09:23:50.909Z,40.82
2022-10-05T09:24:50.968Z,40.61
2022-10-05T09:25:50.910Z,40.35
2022-10-05T09:26:50.790Z,40.05
2022-10-05T09:27:50.801Z,39.79
2022-10-05T09:28:50.801Z,39.32
2022-10-05T09:29:50.809Z,38.64
2022-10-05T09:30:50.875Z,37.83
2022-10-05T09:32:03.539Z,37.10
2022-10-05T09:32:50.806Z,36.40
2022-10-05T09:33:50.838Z,35.59
2022-10-05T09:34:50.819Z,34.96
2022-10-05T09:35:50.804Z,34.45
2022-10-05T09:36:50.824Z,34.07
2022-10-05T09:37:54.703Z,33.73
2022-10-05T09:38:50.831Z,33.34
2022-10-05T09:39:50.848Z,32.95
2022-10-05T09:40:50.827Z,32.65
2022-10-05T09:41:50.854Z,32.39
2022-10-05T09:42:50.832Z,32.10
2022-10-05T09:43:50.833Z,31.90
2022-10-05T09:44:50.842Z,31.72
2022-10-05T09:45:50.899Z,31.51
2022-10-05T09:46:50.855Z,31.34
2022-10-05T09:47:50.878Z,31.17
2022-10-05T09:48:50.851Z,31.04
2022-10-05T09:49:50.857Z,30.96
2022-10-05T09:50:50.852Z,30.80
2022-10-05T09:51:50.857Z,30.64
2022-10-05T09:52:50.860Z,30.56
2022-10-05T09:53:50.889Z,30.45
2022-10-05T09:54:50.873Z,30.34
2022-10-05T09:55:50.864Z,30.24
2022-10-05T09:56:50.880Z,30.16
2022-10-05T09:57:53.102Z,30.03
2022-10-05T09:58:50.881Z,29.93
2022-10-05T09:59:50.875Z,29.83
2022-10-05T10:00:58.821Z,29.73
2022-10-05T10:01:51.480Z,29.65
2022-10-05T10:02:51.003Z,29.51
2022-10-05T10:03:50.897Z,29.29
2022-10-05T10:04:50.887Z,29.17
2022-10-05T10:05:50.894Z,29.09
2022-10-05T10:06:50.900Z,29.06
2022-10-05T10:08:50.895Z,28.97
2022-10-05T10:09:50.912Z,28.74
2022-10-05T10:10:50.911Z,28.63
2022-10-05T10:11:50.894Z,28.53
2022-10-05T10:12:50.908Z,28.52
2022-10-05T10:13:50.922Z,28.57
2022-10-05T10:14:58.230Z,28.52
2022-10-05T10:15:51.047Z,28.40
2022-10-05T10:16:50.918Z,28.09
2022-10-05T10:17:50.923Z,27.87
2022-10-05T10:18:50.935Z,27.77
2022-10-05T10:19:50.939Z,27.73
2022-10-05T10:20:50.938Z,27.74
2022-10-05T10:21:50.957Z,27.80
2022-10-05T10:22:50.948Z,27.88
2022-10-05T10:23:50.934Z,27.96
2022-10-05T10:24:50.953Z,27.98
2022-10-05T10:25:50.963Z,27.78
2022-10-05T10:26:50.965Z,27.47
2022-10-05T10:27:52.539Z,27.33
2022-10-05T10:28:50.943Z,27.32
2022-10-05T10:29:50.974Z,27.33
2022-10-05T10:30:51.002Z,27.36
2022-10-05T10:31:51.046Z,27.44
2022-10-05T10:32:50.960Z,27.51
2022-10-05T10:33:50.980Z,27.55
2022-10-05T10:34:50.971Z,27.58
2022-10-05T10:35:50.986Z,27.62
2022-10-05T10:36:51.291Z,27.64
2022-10-05T10:37:50.977Z,27.65
2022-10-05T10:38:50.974Z,27.62
2022-10-05T10:39:50.997Z,27.56
2022-10-05T10:40:51.004Z,27.54
2022-10-05T10:41:50.993Z,27.39
2022-10-05T10:42:50.990Z,27.31
2022-10-05T10:43:51.004Z,27.27
2022-10-05T10:44:51.015Z,27.25
2022-10-05T10:46:51.620Z,27.21
2022-10-05T10:47:50.997Z,27.22
2022-10-05T10:48:51.018Z,27.25
2022-10-05T10:49:51.025Z,27.29
2022-10-05T10:50:51.018Z,27.21
2022-10-05T10:51:55.356Z,26.90
2022-10-05T10:52:51.002Z,26.78
2022-10-05T10:53:51.023Z,26.56
2022-10-05T10:54:51.024Z,26.26
2022-10-05T10:55:51.020Z,26.14
2022-10-05T10:56:51.489Z,25.96
2022-10-05T10:57:51.020Z,25.34
2022-10-05T10:58:51.045Z,25.23
2022-10-05T11:00:51.030Z,25.29
2022-10-05T11:01:51.668Z,25.40
2022-10-05T11:02:51.106Z,25.52
2022-10-05T11:03:51.072Z,25.67
2022-10-05T11:04:51.052Z,25.84
2022-10-05T11:05:51.057Z,26.01
2022-10-05T11:06:51.060Z,26.09
2022-10-05T11:07:51.067Z,25.96
2022-10-05T11:08:51.052Z,25.85
2022-10-05T11:09:51.098Z,25.70
2022-10-05T11:10:51.086Z,25.65
2022-10-05T11:11:51.398Z,25.44
2022-10-05T11:12:51.074Z,25.46
2022-10-05T11:13:51.073Z,25.52
2022-10-05T11:14:51.070Z,25.49
2022-10-05T11:15:51.260Z,25.51
2022-10-05T11:16:51.550Z,25.61
2022-10-05T11:17:51.100Z,25.36
2022-10-05T11:18:51.088Z,25.39
2022-10-05T11:20:51.083Z,25.65
2022-10-05T11:21:51.087Z,25.68
2022-10-05T11:22:51.102Z,25.69
2022-10-05T11:23:51.089Z,25.60
2022-10-05T11:24:51.098Z,25.62
2022-10-05T11:25:51.090Z,25.68
2022-10-05T11:26:51.606Z,25.69
2022-10-05T11:27:51.121Z,25.75
2022-10-05T11:28:55.656Z,25.84
2022-10-05T11:29:51.103Z,25.85
2022-10-05T11:30:51.360Z,25.89
2022-10-05T11:31:51.702Z,25.91
2022-10-05T11:32:51.139Z,25.92
2022-10-05T11:33:51.120Z,25.97
2022-10-05T11:34:51.116Z,26.04
2022-10-05T11:35:51.137Z,25.98
2022-10-05T11:36:51.129Z,25.91
2022-10-05T11:37:51.163Z,25.80
2022-10-05T11:38:51.144Z,25.78
2022-10-05T11:40:51.153Z,25.70
2022-10-05T11:41:51.405Z,25.69
2022-10-05T11:42:51.155Z,25.71
2022-10-05T11:43:51.170Z,25.80
2022-10-05T11:44:51.158Z,25.87
2022-10-05T11:45:51.143Z,25.91
2022-10-05T11:46:51.257Z,26.02
2022-10-05T11:47:51.172Z,26.14
2022-10-05T11:48:51.173Z,26.11
2022-10-05T11:49:51.178Z,26.18
2022-10-05T11:50:51.163Z,26.19
2022-10-05T11:51:51.477Z,26.16
2022-10-05T11:52:51.169Z,26.18
2022-10-05T11:53:51.206Z,26.23
2022-10-05T11:55:09.763Z,26.28
2022-10-05T11:55:51.192Z,26.32
2022-10-05T11:56:53.896Z,26.33
2022-10-05T11:57:51.193Z,26.37
2022-10-05T11:58:51.199Z,26.21
2022-10-05T11:59:51.210Z,26.09
2022-10-05T12:00:51.199Z,26.05
2022-10-05T12:01:51.197Z,26.01
2022-10-05T12:02:51.330Z,25.98
2022-10-05T12:03:51.296Z,25.97
2022-10-05T12:05:55.940Z,25.73
2022-10-05T12:06:51.655Z,25.70
2022-10-05T12:07:51.208Z,25.71
2022-10-05T12:08:51.233Z,25.78
2022-10-05T12:09:51.221Z,25.88
2022-10-05T12:10:51.265Z,25.99
2022-10-05T12:11:54.367Z,26.08
2022-10-05T12:12:51.222Z,25.97
2022-10-05T12:13:51.220Z,25.81
2022-10-05T12:15:51.327Z,25.74
2022-10-05T12:16:51.248Z,25.70
2022-10-05T12:17:51.255Z,25.44
2022-10-05T12:18:51.257Z,25.45
2022-10-05T12:20:51.273Z,25.40
2022-10-05T12:21:51.267Z,25.48
2022-10-05T12:22:51.283Z,25.60
2022-10-05T12:23:51.299Z,25.71
2022-10-05T12:24:51.247Z,25.83
2022-10-05T12:25:51.272Z,25.93
2022-10-05T12:26:51.258Z,25.86
2022-10-05T12:27:51.286Z,25.76
2022-10-05T12:28:51.263Z,25.78
2022-10-05T12:29:51.301Z,25.73
2022-10-05T12:30:51.262Z,25.70
2022-10-05T12:31:51.326Z,25.60
2022-10-05T12:33:51.337Z,25.66
2022-10-05T12:34:51.281Z,25.42
2022-10-05T12:35:51.301Z,25.26
2022-10-05T12:37:04.430Z,25.07
2022-10-05T12:37:51.297Z,24.94
2022-10-05T12:38:51.308Z,24.99
2022-10-05T12:39:51.293Z,25.08
2022-10-05T12:40:51.296Z,25.24
2022-10-05T12:41:51.316Z,25.40
2022-10-05T12:42:56.179Z,25.54
2022-10-05T12:43:51.327Z,25.66
2022-10-05T12:44:51.300Z,25.72
2022-10-05T12:45:51.364Z,25.68
2022-10-05T12:46:51.311Z,25.67
2022-10-05T12:47:53.817Z,25.52
2022-10-05T12:48:51.358Z,25.50
2022-10-05T12:49:51.351Z,25.52
2022-10-05T12:50:51.346Z,25.59
2022-10-05T12:51:51.367Z,25.65
2022-10-05T12:52:51.378Z,25.59
2022-10-05T12:53:51.344Z,25.51
2022-10-05T12:54:51.379Z,25.56
2022-10-05T12:55:51.332Z,25.64
2022-10-05T12:56:51.357Z,25.73
2022-10-05T12:57:51.366Z,25.65
2022-10-05T12:58:51.351Z,25.58
2022-10-05T12:59:51.706Z,25.64
2022-10-05T13:00:51.419Z,25.72
2022-10-05T13:01:51.438Z,25.80
2022-10-05T13:02:51.353Z,25.86
2022-10-05T13:03:51.370Z,25.91
2022-10-05T13:04:51.348Z,25.97
2022-10-05T13:05:51.357Z,26.01
2022-10-05T13:06:51.364Z,25.80
2022-10-05T13:07:51.369Z,25.73
2022-10-05T13:08:51.364Z,25.71
2022-10-05T13:09:51.363Z,25.54
2022-10-05T13:10:51.441Z,25.50
2022-10-05T13:11:51.378Z,25.56
2022-10-05T13:12:51.392Z,25.64
2022-10-05T13:13:51.397Z,25.72
2022-10-05T13:14:51.389Z,25.78
2022-10-05T13:15:51.456Z,25.84
2022-10-05T13:16:54.713Z,25.90
2022-10-05T13:17:51.410Z,25.92
2022-10-05T13:18:51.400Z,25.94
2022-10-05T13:19:56.521Z,25.98
2022-10-05T13:20:51.413Z,26.01
2022-10-05T13:21:51.420Z,26.04
2022-10-05T13:22:51.414Z,26.06
2022-10-05T13:23:55.099Z,26.08
2022-10-05T13:24:51.407Z,26.10
2022-10-05T13:25:51.425Z,26.09
2022-10-05T13:27:51.445Z,26.06
2022-10-05T13:28:51.445Z,26.05
2022-10-05T13:29:54.318Z,26.00
2022-10-05T13:32:51.492Z,26.01
2022-10-05T13:33:51.448Z,26.03
2022-10-05T13:34:51.448Z,25.81
2022-10-05T13:35:51.443Z,25.74
2022-10-05T13:36:51.438Z,25.73
2022-10-05T13:38:51.488Z,25.69
2022-10-05T13:39:51.443Z,25.66
2022-10-05T13:41:51.469Z,25.62
2022-10-05T13:42:51.468Z,25.60
2022-10-05T13:43:51.486Z,25.66
2022-10-05T13:45:55.660Z,25.65
2022-10-05T13:46:51.463Z,25.63
2022-10-05T13:47:51.507Z,25.66
2022-10-05T13:48:51.477Z,25.70
2022-10-05T13:49:51.469Z,25.75
2022-10-05T13:50:51.522Z,25.80
2022-10-05T13:51:51.581Z,25.83
2022-10-05T13:52:51.499Z,25.80
2022-10-05T13:53:51.656Z,25.81
2022-10-05T13:54:51.483Z,25.84
2022-10-05T13:55:51.502Z,25.85
2022-10-05T13:56:56.626Z,25.90
2022-10-05T13:57:51.526Z,25.93
2022-10-05T13:58:51.512Z,25.97
2022-10-05T13:59:51.520Z,25.82
2022-10-05T14:00:51.532Z,25.68
2022-10-05T14:01:51.589Z,25.44
2022-10-05T14:02:51.571Z,25.31
2022-10-05T14:03:51.523Z,25.27
2022-10-05T14:04:51.522Z,25.29
2022-10-05T14:05:55.613Z,25.35
2022-10-05T14:06:51.502Z,25.44
2022-10-05T14:07:51.535Z,25.52
2022-10-05T14:08:51.531Z,25.53
2022-10-05T14:09:51.537Z,25.56
2022-10-05T14:10:51.532Z,25.61
2022-10-05T14:11:51.530Z,25.65
2022-10-05T14:12:51.548Z,25.69
2022-10-05T14:13:51.572Z,25.73
2022-10-05T14:14:51.535Z,25.76
2022-10-05T14:16:51.639Z,25.74
2022-10-05T14:17:51.560Z,25.62
2022-10-05T14:18:51.560Z,25.61
2022-10-05T14:19:51.562Z,25.65
2022-10-05T14:20:51.570Z,25.68
2022-10-05T14:21:51.571Z,25.71
2022-10-05T14:22:51.566Z,25.69
2022-10-05T14:23:51.601Z,25.64
2022-10-05T14:24:51.576Z,25.58
2022-10-05T14:25:51.582Z,25.57
2022-10-05T14:27:51.593Z,25.52
2022-10-05T14:28:51.580Z,25.49
2022-10-05T14:29:51.586Z,25.48
2022-10-05T14:30:56.815Z,25.44
2022-10-05T14:31:51.680Z,25.42
2022-10-05T14:32:51.604Z,25.22
2022-10-05T14:33:51.592Z,25.03
2022-10-05T14:34:51.606Z,25.04
2022-10-05T14:35:51.590Z,25.08
2022-10-05T14:36:51.629Z,25.14
2022-10-05T14:37:51.632Z,25.17
2022-10-05T14:38:51.622Z,25.18
2022-10-05T14:39:51.604Z,25.09
2022-10-05T14:40:51.602Z,25.08
2022-10-05T14:41:51.629Z,25.05
2022-10-05T14:43:51.655Z,25.00
2022-10-05T14:44:51.628Z,24.98
2022-10-05T14:45:51.694Z,25.00
2022-10-05T14:46:51.629Z,25.03
2022-10-05T14:47:51.630Z,25.09
2022-10-05T14:48:51.624Z,25.14
2022-10-05T14:49:51.627Z,25.12
2022-10-05T14:50:51.758Z,25.14
2022-10-05T14:51:51.639Z,25.13
2022-10-05T14:52:52.038Z,25.14
2022-10-05T14:53:51.649Z,25.18
2022-10-05T14:54:51.652Z,25.21
2022-10-05T14:56:51.646Z,25.23
2022-10-05T14:57:51.658Z,25.24
2022-10-05T14:58:51.651Z,25.27
2022-10-05T15:00:51.706Z,25.28
2022-10-05T15:01:51.739Z,25.20
2022-10-05T15:02:51.688Z,25.12
2022-10-05T15:03:51.664Z,25.08
2022-10-05T15:04:51.671Z,25.09
2022-10-05T15:05:51.669Z,25.10
2022-10-05T15:06:55.289Z,25.11
2022-10-05T15:07:52.308Z,25.13
2022-10-05T15:08:51.680Z,25.14
2022-10-05T15:09:51.683Z,25.12
2022-10-05T15:10:51.677Z,25.10
2022-10-05T15:11:51.687Z,25.11
2022-10-05T15:12:51.690Z,25.09
2022-10-05T15:13:51.799Z,25.05
2022-10-05T15:15:51.707Z,25.07
2022-10-05T15:16:51.788Z,25.09
2022-10-05T15:17:51.697Z,25.11
2022-10-05T15:18:51.724Z,25.07
2022-10-05T15:19:51.731Z,25.06
2022-10-05T15:20:51.703Z,25.03
2022-10-05T15:21:51.713Z,25.02
2022-10-05T15:23:51.746Z,24.97
2022-10-05T15:24:51.755Z,24.96
2022-10-05T15:25:51.716Z,24.98
2022-10-05T15:26:51.740Z,24.99
2022-10-05T15:27:51.725Z,25.00
2022-10-05T15:28:51.740Z,24.97
2022-10-05T15:29:52.528Z,24.93
2022-10-05T15:31:51.748Z,24.94
2022-10-05T15:33:51.754Z,24.95
2022-10-05T15:36:51.787Z,24.88
2022-10-05T15:37:51.791Z,24.79
2022-10-05T15:38:51.779Z,24.66
2022-10-05T15:39:51.776Z,24.49
2022-10-05T15:40:51.778Z,24.45
2022-10-05T15:41:51.757Z,24.47
2022-10-05T15:42:51.791Z,24.51
2022-10-05T15:43:51.799Z,24.55
2022-10-05T15:44:52.535Z,24.57
2022-10-05T15:45:53.938Z,24.58
2022-10-05T15:46:51.779Z,24.56
2022-10-05T15:47:51.770Z,24.49
2022-10-05T15:48:51.815Z,24.46
2022-10-05T15:49:51.796Z,24.36
2022-10-05T15:51:51.817Z,24.35
2022-10-05T15:53:51.810Z,24.37
2022-10-05T15:54:51.824Z,24.41
2022-10-05T15:55:51.823Z,24.45
2022-10-05T15:56:51.813Z,24.31
2022-10-05T15:57:51.827Z,24.19
2022-10-05T15:58:51.819Z,24.13
2022-10-05T15:59:51.832Z,24.15
2022-10-05T16:00:51.888Z,24.18
2022-10-05T16:01:51.817Z,24.20
2022-10-05T16:02:51.892Z,24.19
2022-10-05T16:03:51.847Z,24.13
2022-10-05T16:04:51.833Z,24.10
2022-10-05T16:05:51.833Z,24.12
2022-10-05T16:06:51.841Z,24.16
2022-10-05T16:07:51.842Z,24.20
2022-10-05T16:08:51.871Z,24.22
2022-10-05T16:09:51.852Z,24.25
2022-10-05T16:11:51.840Z,24.22
2022-10-05T16:12:51.860Z,24.20
2022-10-05T16:13:51.862Z,24.19
2022-10-05T16:14:51.861Z,24.16
2022-10-05T16:16:51.895Z,24.14
2022-10-05T16:17:51.860Z,24.13
2022-10-05T16:19:52.000Z,24.12
2022-10-05T16:20:51.863Z,24.10
2022-10-05T16:21:52.841Z,24.06
2022-10-05T16:22:51.877Z,24.04
2022-10-05T16:23:51.877Z,24.02
2022-10-05T16:24:51.896Z,23.97
2022-10-05T16:25:51.911Z,23.93
2022-10-05T16:26:51.877Z,23.89
2022-10-05T16:27:51.910Z,23.85
2022-10-05T16:28:51.972Z,23.82
2022-10-05T16:29:51.904Z,23.77
2022-10-05T16:30:51.951Z,23.72
2022-10-05T16:31:51.903Z,23.68
2022-10-05T16:32:51.916Z,23.65
2022-10-05T16:33:51.905Z,23.61
2022-10-05T16:34:51.906Z,23.56
2022-10-05T16:35:51.920Z,23.51
2022-10-05T16:36:51.919Z,23.46
2022-10-05T16:37:51.908Z,23.43
2022-10-05T16:38:51.915Z,23.39
2022-10-05T16:39:51.940Z,23.34
2022-10-05T16:40:51.920Z,23.29
2022-10-05T16:41:51.923Z,23.24
2022-10-05T16:42:51.933Z,23.18
2022-10-05T16:43:51.934Z,23.07
2022-10-05T16:44:51.941Z,23.02
2022-10-05T16:45:51.991Z,22.99
2022-10-05T16:46:52.021Z,22.97
2022-10-05T16:47:51.936Z,22.94
2022-10-05T16:48:51.957Z,22.91
2022-10-05T16:49:51.959Z,22.88
2022-10-05T16:50:51.981Z,22.83
2022-10-05T16:51:51.967Z,22.79
2022-10-05T16:52:51.967Z,22.74
2022-10-05T16:53:51.952Z,22.66
2022-10-05T16:54:51.957Z,22.61
2022-10-05T16:55:51.966Z,22.58
2022-10-05T16:56:51.979Z,22.55
2022-10-05T16:57:51.980Z,22.53
2022-10-05T16:58:53.140Z,22.49
2022-10-05T16:59:51.997Z,22.46
2022-10-05T17:00:52.034Z,22.42
2022-10-05T17:01:52.109Z,22.40
2022-10-05T17:02:52.044Z,22.37
2022-10-05T17:03:51.980Z,22.33
2022-10-05T17:04:51.993Z,22.30
2022-10-05T17:05:51.976Z,22.29
2022-10-05T17:06:52.007Z,22.26
2022-10-05T17:07:52.004Z,22.25
2022-10-05T17:08:51.983Z,22.22
2022-10-05T17:09:52.003Z,22.19
2022-10-05T17:10:51.998Z,22.09
2022-10-05T17:11:51.999Z,22.01
2022-10-05T17:12:51.998Z,21.95
2022-10-05T17:13:52.016Z,21.92
2022-10-05T17:14:52.019Z,21.88
2022-10-05T17:16:52.013Z,21.87
2022-10-05T17:17:52.113Z,21.86
2022-10-05T17:18:52.013Z,21.75
2022-10-05T17:19:52.036Z,21.58
2022-10-05T17:20:52.025Z,21.48
2022-10-05T17:21:52.064Z,21.44
2022-10-05T17:22:52.037Z,21.47
2022-10-05T17:23:52.035Z,21.49
2022-10-05T17:24:52.035Z,21.53
2022-10-05T17:25:52.053Z,21.54
2022-10-05T17:26:52.054Z,21.55
2022-10-05T17:29:52.093Z,21.54
2022-10-05T17:30:52.109Z,21.52
2022-10-05T17:31:52.057Z,21.51
2022-10-05T17:32:52.072Z,21.49
2022-10-05T17:34:52.081Z,21.48
2022-10-05T17:35:53.470Z,21.45
2022-10-05T17:36:54.624Z,21.44
2022-10-05T17:37:52.080Z,21.39
2022-10-05T17:38:52.077Z,21.31
2022-10-05T17:39:52.088Z,21.27
2022-10-05T17:40:52.103Z,21.25